Hanjin Phoenix — A8CN9 — position and weather

sailwx.info

Track history (hours):
 
Tides and Currents Weather Stations Pressure Air Temp Water Temp Dewpoint Dewpoint Depression Visibility Wind Speed Wind Dir Waves Ship Positions

Hanjin Phoenix

Last reported at 2016-Feb-13 04:33 UTC. Time now 2016-Feb-13 04:35 UTC.
Position N 43°34' E 010°18'.

Length 282.1 m; beam 32.2 m; draft 13 m.

Type: Ship (hazmat cat A). MMSI: 636090671.

Date/timePositionNaut miles runAvg speedWind from/ knotsBaromVisibWave heightAir tempDewpointWater temp
2016-Feb-13 04:33N 43°34' E 010°18'0 0.0
2016-Feb-13 03:31N 43°34' E 010°18'0 0.0
2016-Feb-13 02:32N 43°34' E 010°18'0 0.0
2016-Feb-13 01:32N 43°34' E 010°18'0 0.0
2016-Feb-13 00:32N 43°34' E 010°18'0 0.0
2016-Feb-12 23:32N 43°34' E 010°18'0 0.0
2016-Feb-12 22:32N 43°34' E 010°18'0 0.0
2016-Feb-12 21:32N 43°34' E 010°18'0 0.0
2016-Feb-12 20:32N 43°34' E 010°18'0 0.0
2016-Feb-12 19:32N 43°34' E 010°18'0 0.0
2016-Feb-12 18:32N 43°34' E 010°18'0 0.0
2016-Feb-12 17:32N 43°34' E 010°18'0 0.0
2016-Feb-12 16:32N 43°34' E 010°18'0 0.0
2016-Feb-12 15:32N 43°34' E 010°18'0 0.0
2016-Feb-12 14:32N 43°34' E 010°18'0 0.0
2016-Feb-12 13:32N 43°34' E 010°18'4 3.9
2016-Feb-12 12:33N 43°31' E 010°16'3 2.6
2016-Feb-12 11:33N 43°29' E 010°14'1 0.6
2016-Feb-12 10:33N 43°29' E 010°15'0 0.0
2016-Feb-12 09:33N 43°29' E 010°15'0 0.0
2016-Feb-12 08:33N 43°29' E 010°15'0 0.1
2016-Feb-12 07:33N 43°29' E 010°15'0 0.0
2016-Feb-12 06:33N 43°29' E 010°15'0 0.1
2016-Feb-12 05:33N 43°29' E 010°15'0 0.0
2016-Feb-12 04:33N 43°29' E 010°15'0 0.1
2016-Feb-12 03:33N 43°29' E 010°15'0 0.1
2016-Feb-12 02:33N 43°29' E 010°15'0 0.1
2016-Feb-12 01:33N 43°29' E 010°15'0 0.0
2016-Feb-12 00:33N 43°29' E 010°15'0 0.1
2016-Feb-11 23:33N 43°29' E 010°15'0 0.0
2016-Feb-11 22:33N 43°29' E 010°15'0 0.0
2016-Feb-11 21:33N 43°29' E 010°15'0 0.1
2016-Feb-11 20:33N 43°29' E 010°15'0 0.1
2016-Feb-11 19:33N 43°29' E 010°15'0 0.0
2016-Feb-11 18:33N 43°29' E 010°15'0 0.0
2016-Feb-11 17:33N 43°29' E 010°15'0 0.0
2016-Feb-11 16:33N 43°29' E 010°15'0 0.0
2016-Feb-11 15:33N 43°29' E 010°15'0 0.0
2016-Feb-11 14:33N 43°29' E 010°15'0 0.0
2016-Feb-11 13:33N 43°29' E 010°15'0 0.0
2016-Feb-11 12:33N 43°29' E 010°15'0 0.0
2016-Feb-11 11:33N 43°29' E 010°15'0 0.0
2016-Feb-11 10:33N 43°29' E 010°15'0 0.0
2016-Feb-11 09:24N 43°29' E 010°15'0 0.0
2016-Feb-11 08:33N 43°29' E 010°15'0 0.0
2016-Feb-11 07:30N 43°29' E 010°15'0 0.0
2016-Feb-11 06:33N 43°29' E 010°15'0 0.0
2016-Feb-11 05:33N 43°29' E 010°15'4 3.9
2016-Feb-11 04:33N 43°26' E 010°11'9 9.4
2016-Feb-11 03:33N 43°17' E 010°07'10 9.9
2016-Feb-11 02:33N 43°07' E 010°03'249 9.2
2016-Feb-09 23:33N 39°00' E 009°26'1111.2
2016-Feb-09 22:33N 39°04' E 009°12'8 8.2
2016-Feb-09 21:33N 39°11' E 009°06'2 2.2
2016-Feb-09 20:31N 39°13' E 009°04'0 0.0
2016-Feb-09 19:31N 39°13' E 009°04'0 0.0
2016-Feb-09 18:31N 39°13' E 009°04'0 0.0
2016-Feb-09 17:31N 39°13' E 009°04'0 0.0
2016-Feb-09 16:32N 39°13' E 009°04'0 0.0
2016-Feb-09 15:32N 39°13' E 009°04'0 0.0
2016-Feb-09 14:32N 39°13' E 009°04'0 0.0
2016-Feb-09 13:32N 39°13' E 009°04'0 0.0
2016-Feb-09 12:32N 39°13' E 009°04'0 0.0
2016-Feb-09 11:32N 39°13' E 009°04'0 0.0
2016-Feb-09 10:32N 39°13' E 009°04'0 0.0
2016-Feb-09 09:32N 39°13' E 009°04'0 0.0
2016-Feb-09 08:32N 39°13' E 009°04'0 0.0
2016-Feb-09 07:32N 39°13' E 009°04'0 0.0
2016-Feb-09 06:32N 39°13' E 009°04'0 0.0
2016-Feb-09 05:32N 39°13' E 009°04'0 0.0
2016-Feb-09 04:32N 39°13' E 009°04'0 0.0
2016-Feb-09 03:32N 39°13' E 009°04'0 0.0
2016-Feb-09 02:32N 39°13' E 009°04'0 0.0
2016-Feb-09 01:32N 39°13' E 009°04'0 0.0
2016-Feb-09 00:32N 39°13' E 009°04'0 0.0
2016-Feb-08 23:32N 39°13' E 009°04'0 0.0
2016-Feb-08 22:32N 39°13' E 009°04'0 0.0
2016-Feb-08 21:32N 39°13' E 009°04'0 0.0
2016-Feb-08 20:32N 39°13' E 009°04'0 0.0
2016-Feb-08 19:32N 39°13' E 009°04'0 0.0
2016-Feb-08 18:32N 39°13' E 009°04'2 2.5
2016-Feb-08 17:33N 39°11' E 009°06'8 8.4
2016-Feb-08 16:34N 39°03' E 009°10'5 4.9
2016-Feb-08 15:33N 38°59' E 009°06'1413.9
2016-Feb-08 14:33N 38°48' E 008°55'12414.4
2016-Feb-08 06:00N 38°12' E 006°24'7913.2 300 / 191020.510.8 3.014.011.8
2016-Feb-08 00:00N 37°48' E 004°48'8414.1 280 / 211022.010.8 1.515.1 5.215.7
2016-Feb-07 18:00N 37°24' E 003°06'32713.6 300 / 251020.0 5.4 3.515.013.3
2016-Feb-06 18:00N 36°06' W 003°30'7713.7 240 / 81021.0 5.4 0.517.015.4
2016-Feb-06 12:24N 36°02' W 005°05'1314.9
2016-Feb-06 11:33N 35°60' W 005°20'2813.8
2016-Feb-06 09:31N 35°55' W 005°54'5415.2
2016-Feb-06 06:00N 35°48' W 007°00'8313.8 210 / 61021.0 5.4 2.018.016.1
2016-Feb-06 00:00N 35°48' W 008°42'8313.8 210 / 141022.0 5.4 0.516.513.217.4
2016-Feb-05 18:00N 35°48' W 010°24'23012.8 290 / 81021.0 5.4 2.518.014.8
2016-Feb-05 00:00N 35°30' W 015°06'8414.0 350 / 121025.0 5.4 0.517.012.816.9
2016-Feb-04 18:00N 35°18' W 016°48'8413.9 040 / 161025.0 5.4 2.517.013.7
2016-Feb-04 12:00N 35°12' W 018°30'   020 / 191029.0 5.4 0.518.0 9.217.2
Track history (hours):
 
Tides and Currents Weather Stations Pressure Air Temp Water Temp Dewpoint Dewpoint Depression Visibility Wind Speed Wind Dir Waves Ship Positions

Hanjin Phoenix

Last reported at 2016-Feb-13 04:33 UTC. Time now 2016-Feb-13 04:35 UTC.
Position N 43°34' E 010°18'.

Length 282.1 m; beam 32.2 m; draft 13 m.

Type: Ship (hazmat cat A). MMSI: 636090671.

Date/timePositionNaut miles runAvg speedWind from/ knotsBaromVisibWave heightAir tempDewpointWater temp
2016-Feb-13 04:33N 43°34' E 010°18'0 0.0
2016-Feb-13 03:31N 43°34' E 010°18'0 0.0
2016-Feb-13 02:32N 43°34' E 010°18'0 0.0
2016-Feb-13 01:32N 43°34' E 010°18'0 0.0
2016-Feb-13 00:32N 43°34' E 010°18'0 0.0
2016-Feb-12 23:32N 43°34' E 010°18'0 0.0
2016-Feb-12 22:32N 43°34' E 010°18'0 0.0
2016-Feb-12 21:32N 43°34' E 010°18'0 0.0
2016-Feb-12 20:32N 43°34' E 010°18'0 0.0
2016-Feb-12 19:32N 43°34' E 010°18'0 0.0
2016-Feb-12 18:32N 43°34' E 010°18'0 0.0
2016-Feb-12 17:32N 43°34' E 010°18'0 0.0
2016-Feb-12 16:32N 43°34' E 010°18'0 0.0
2016-Feb-12 15:32N 43°34' E 010°18'0 0.0
2016-Feb-12 14:32N 43°34' E 010°18'0 0.0
2016-Feb-12 13:32N 43°34' E 010°18'4 3.9
2016-Feb-12 12:33N 43°31' E 010°16'3 2.6
2016-Feb-12 11:33N 43°29' E 010°14'1 0.6
2016-Feb-12 10:33N 43°29' E 010°15'0 0.0
2016-Feb-12 09:33N 43°29' E 010°15'0 0.0
2016-Feb-12 08:33N 43°29' E 010°15'0 0.1
2016-Feb-12 07:33N 43°29' E 010°15'0 0.0
2016-Feb-12 06:33N 43°29' E 010°15'0 0.1
2016-Feb-12 05:33N 43°29' E 010°15'0 0.0
2016-Feb-12 04:33N 43°29' E 010°15'0 0.1
2016-Feb-12 03:33N 43°29' E 010°15'0 0.1
2016-Feb-12 02:33N 43°29' E 010°15'0 0.1
2016-Feb-12 01:33N 43°29' E 010°15'0 0.0
2016-Feb-12 00:33N 43°29' E 010°15'0 0.1
2016-Feb-11 23:33N 43°29' E 010°15'0 0.0
2016-Feb-11 22:33N 43°29' E 010°15'0 0.0
2016-Feb-11 21:33N 43°29' E 010°15'0 0.1
2016-Feb-11 20:33N 43°29' E 010°15'0 0.1
2016-Feb-11 19:33N 43°29' E 010°15'0 0.0
2016-Feb-11 18:33N 43°29' E 010°15'0 0.0
2016-Feb-11 17:33N 43°29' E 010°15'0 0.0
2016-Feb-11 16:33N 43°29' E 010°15'0 0.0
2016-Feb-11 15:33N 43°29' E 010°15'0 0.0
2016-Feb-11 14:33N 43°29' E 010°15'0 0.0
2016-Feb-11 13:33N 43°29' E 010°15'0 0.0
2016-Feb-11 12:33N 43°29' E 010°15'0 0.0
2016-Feb-11 11:33N 43°29' E 010°15'0 0.0
2016-Feb-11 10:33N 43°29' E 010°15'0 0.0
2016-Feb-11 09:24N 43°29' E 010°15'0 0.0
2016-Feb-11 08:33N 43°29' E 010°15'0 0.0
2016-Feb-11 07:30N 43°29' E 010°15'0 0.0
2016-Feb-11 06:33N 43°29' E 010°15'0 0.0
2016-Feb-11 05:33N 43°29' E 010°15'4 3.9
2016-Feb-11 04:33N 43°26' E 010°11'9 9.4
2016-Feb-11 03:33N 43°17' E 010°07'10 9.9
2016-Feb-11 02:33N 43°07' E 010°03'249 9.2
2016-Feb-09 23:33N 39°00' E 009°26'1111.2
2016-Feb-09 22:33N 39°04' E 009°12'8 8.2
2016-Feb-09 21:33N 39°11' E 009°06'2 2.2
2016-Feb-09 20:31N 39°13' E 009°04'0 0.0
2016-Feb-09 19:31N 39°13' E 009°04'0 0.0
2016-Feb-09 18:31N 39°13' E 009°04'0 0.0
2016-Feb-09 17:31N 39°13' E 009°04'0 0.0
2016-Feb-09 16:32N 39°13' E 009°04'0 0.0
2016-Feb-09 15:32N 39°13' E 009°04'0 0.0
2016-Feb-09 14:32N 39°13' E 009°04'0 0.0
2016-Feb-09 13:32N 39°13' E 009°04'0 0.0
2016-Feb-09 12:32N 39°13' E 009°04'0 0.0
2016-Feb-09 11:32N 39°13' E 009°04'0 0.0
2016-Feb-09 10:32N 39°13' E 009°04'0 0.0
2016-Feb-09 09:32N 39°13' E 009°04'0 0.0
2016-Feb-09 08:32N 39°13' E 009°04'0 0.0
2016-Feb-09 07:32N 39°13' E 009°04'0 0.0
2016-Feb-09 06:32N 39°13' E 009°04'0 0.0
2016-Feb-09 05:32N 39°13' E 009°04'0 0.0
2016-Feb-09 04:32N 39°13' E 009°04'0 0.0
2016-Feb-09 03:32N 39°13' E 009°04'0 0.0
2016-Feb-09 02:32N 39°13' E 009°04'0 0.0
2016-Feb-09 01:32N 39°13' E 009°04'0 0.0
2016-Feb-09 00:32N 39°13' E 009°04'0 0.0
2016-Feb-08 23:32N 39°13' E 009°04'0 0.0
2016-Feb-08 22:32N 39°13' E 009°04'0 0.0
2016-Feb-08 21:32N 39°13' E 009°04'0 0.0
2016-Feb-08 20:32N 39°13' E 009°04'0 0.0
2016-Feb-08 19:32N 39°13' E 009°04'0 0.0
2016-Feb-08 18:32N 39°13' E 009°04'2 2.5
2016-Feb-08 17:33N 39°11' E 009°06'8 8.4
2016-Feb-08 16:34N 39°03' E 009°10'5 4.9
2016-Feb-08 15:33N 38°59' E 009°06'1413.9
2016-Feb-08 14:33N 38°48' E 008°55'12414.4
2016-Feb-08 06:00N 38°12' E 006°24'7913.2 300 / 191020.510.8 3.014.011.8
2016-Feb-08 00:00N 37°48' E 004°48'8414.1 280 / 211022.010.8 1.515.1 5.215.7
2016-Feb-07 18:00N 37°24' E 003°06'32713.6 300 / 251020.0 5.4 3.515.013.3
2016-Feb-06 18:00N 36°06' W 003°30'7713.7 240 / 81021.0 5.4 0.517.015.4
2016-Feb-06 12:24N 36°02' W 005°05'1314.9
2016-Feb-06 11:33N 35°60' W 005°20'2813.8
2016-Feb-06 09:31N 35°55' W 005°54'5415.2
2016-Feb-06 06:00N 35°48' W 007°00'8313.8 210 / 61021.0 5.4 2.018.016.1
2016-Feb-06 00:00N 35°48' W 008°42'8313.8 210 / 141022.0 5.4 0.516.513.217.4
2016-Feb-05 18:00N 35°48' W 010°24'23012.8 290 / 81021.0 5.4 2.518.014.8
2016-Feb-05 00:00N 35°30' W 015°06'8414.0 350 / 121025.0 5.4 0.517.012.816.9
2016-Feb-04 18:00N 35°18' W 016°48'8413.9 040 / 161025.0 5.4 2.517.013.7
2016-Feb-04 12:00N 35°12' W 018°30'   020 / 191029.0 5.4 0.518.0 9.217.2

Dump ship's entire track history